Fine, New York
Current Conditions -  °F | °C
As of 2:58 PM on Sunday 21 Dec 2014 (Local Time) from KGTB Reporting Station
Overcast Overcast  
Wind Chill: 34°   Ceiling: 2100
Heat Index: 34°   Visibility: 10mi
Dew Point: 19°   Wind: 3mph
Humidity: 55%   Direction: 260°W
Pressure: 30.27"   Gusts: NA
Location:  44.25°N, 75.14°W
Report Text: KGTB 211958Z AUTO 26003KT 10SM OVC021 01/M07 A3027 RMK AO2 SLP260 T00091073
Loading
Personal Weather Stations






























Interactive Weather Map New forecast layout! Learn more

10-Day Weather Forecast

Advertisements
Track Severe Weather on mobile